Time;durP1;ratioP1;P1;durP2;ratioP2;P2;SDS_P1;SDS_P2;PMS_P1;PMS_P2;Temp;Humidity;BMP_temperature;BMP_pressure;BME280_temperature;BME280_humidity;BME280_pressure;Samples;Min_cycle;Max_cycle;Signal;HPM_P1;HPM_P2
2023/06/06 00:01:40;;;;;;;6.22;2.67;;;12.80;99.90;;;;;;4961880;28;20070;-34
2023/06/06 00:04:06;;;;;;;5.18;2.15;;;12.80;99.90;;;;;;4957647;28;20059;-34
2023/06/06 00:06:33;;;;;;;7.68;2.97;;;12.70;99.90;;;;;;4959666;28;20051;-34
2023/06/06 00:09:00;;;;;;;7.53;2.38;;;12.70;99.90;;;;;;4961316;28;20043;-34
2023/06/06 00:11:28;;;;;;;9.40;3.33;;;12.70;99.90;;;;;;4965830;28;20067;-33
2023/06/06 00:13:56;;;;;;;5.68;3.42;;;12.60;99.90;;;;;;4958424;28;20054;-34
2023/06/06 00:16:23;;;;;;;11.38;3.60;;;12.60;99.90;;;;;;4945018;28;20533;-34
2023/06/06 00:18:52;;;;;;;7.28;2.58;;;12.60;99.90;;;;;;4962851;28;20053;-34
2023/06/06 00:21:21;;;;;;;7.78;3.25;;;12.50;99.90;;;;;;4956979;28;20051;-34
2023/06/06 00:23:47;;;;;;;7.47;3.15;;;12.50;99.90;;;;;;4958041;28;20093;-34
2023/06/06 00:26:13;;;;;;;7.30;3.38;;;12.50;99.90;;;;;;4961771;28;20055;-34
2023/06/06 00:28:38;;;;;;;8.95;3.20;;;12.50;99.90;;;;;;4957076;28;20578;-33
2023/06/06 00:31:04;;;;;;;10.60;3.22;;;12.50;99.90;;;;;;4956275;28;20118;-34
2023/06/06 00:33:30;;;;;;;6.63;2.90;;;12.40;99.90;;;;;;4955560;28;20090;-34
2023/06/06 00:35:55;;;;;;;7.05;3.17;;;12.40;99.90;;;;;;4960411;28;20073;-34
2023/06/06 00:38:21;;;;;;;7.05;2.83;;;12.40;99.90;;;;;;4963853;28;20160;-33
2023/06/06 00:40:47;;;;;;;5.53;2.70;;;12.30;99.90;;;;;;4960896;28;20079;-33
2023/06/06 00:43:12;;;;;;;10.80;3.03;;;12.30;99.90;;;;;;4957070;28;20068;-34
2023/06/06 00:45:38;;;;;;;10.40;3.45;;;12.30;99.90;;;;;;4944070;28;20078;-34
2023/06/06 00:48:04;;;;;;;7.47;2.67;;;12.20;99.90;;;;;;4963356;28;20051;-34
2023/06/06 00:50:30;;;;;;;8.65;2.50;;;12.20;99.90;;;;;;4956854;28;20167;-34
2023/06/06 00:52:57;;;;;;;10.05;3.22;;;12.20;99.90;;;;;;4944206;28;20200;-34
2023/06/06 00:55:23;;;;;;;7.43;2.85;;;12.20;99.90;;;;;;4959363;28;20058;-33
2023/06/06 00:57:51;;;;;;;6.80;2.75;;;12.20;99.90;;;;;;4958782;28;20055;-34
2023/06/06 01:00:17;;;;;;;10.20;3.80;;;12.20;99.90;;;;;;4955739;28;20059;-34
2023/06/06 01:02:43;;;;;;;8.32;3.38;;;12.20;99.90;;;;;;4950002;28;20151;-33
2023/06/06 01:05:10;;;;;;;8.73;3.33;;;12.20;99.90;;;;;;4945433;28;20508;-33
2023/06/06 01:07:36;;;;;;;11.73;3.58;;;12.20;99.90;;;;;;4941358;28;20055;-33
2023/06/06 01:10:08;;;;;;;5.50;3.17;;;12.20;99.90;;;;;;4943594;28;20074;-33
2023/06/06 01:12:55;;;;;;;6.03;2.65;;;12.10;99.90;;;;;;4939678;28;20051;-33
2023/06/06 01:15:42;;;;;;;8.38;3.15;;;12.10;99.90;;;;;;4940631;28;21264;-33
2023/06/06 01:18:11;;;;;;;9.07;3.38;;;12.00;99.90;;;;;;4936785;28;20134;-33
2023/06/06 01:20:39;;;;;;;6.65;2.70;;;11.90;99.90;;;;;;4933911;28;20063;-33
2023/06/06 01:23:06;;;;;;;12.15;4.00;;;11.90;99.90;;;;;;4935073;28;20488;-33
2023/06/06 01:25:34;;;;;;;6.20;3.10;;;11.90;99.90;;;;;;4940206;28;20134;-33
2023/06/06 01:28:00;;;;;;;7.80;2.95;;;11.80;99.90;;;;;;4940566;28;20055;-34
2023/06/06 01:30:27;;;;;;;17.58;3.90;;;11.80;99.90;;;;;;4938821;28;20048;-34
2023/06/06 01:33:22;;;;;;;7.40;2.90;;;11.80;99.90;;;;;;4937162;28;20473;-34
2023/06/06 01:35:57;;;;;;;10.70;3.67;;;11.80;99.90;;;;;;4923905;28;20059;-33
2023/06/06 01:38:26;;;;;;;6.85;3.00;;;11.70;99.90;;;;;;4937024;28;20054;-33
2023/06/06 01:40:56;;;;;;;8.90;2.85;;;11.70;99.90;;;;;;4940049;28;20154;-33
2023/06/06 01:43:25;;;;;;;8.35;2.83;;;11.70;99.90;;;;;;4938108;28;20056;-33
2023/06/06 01:45:52;;;;;;;10.57;3.78;;;11.70;99.90;;;;;;4943267;28;20062;-33
2023/06/06 01:48:19;;;;;;;7.03;2.72;;;11.60;99.90;;;;;;4935637;28;20090;-33
2023/06/06 01:50:45;;;;;;;7.18;2.78;;;11.60;99.90;;;;;;4940823;28;20059;-33
2023/06/06 01:53:11;;;;;;;6.05;2.75;;;11.60;99.90;;;;;;4937683;28;20386;-33
2023/06/06 01:55:38;;;;;;;5.60;2.72;;;11.60;99.90;;;;;;4939644;28;20105;-33
2023/06/06 01:58:05;;;;;;;5.82;3.10;;;11.60;99.90;;;;;;4936927;28;20056;-33
2023/06/06 02:00:31;;;;;;;5.88;2.38;;;11.60;99.90;;;;;;4935136;28;20055;-33
2023/06/06 02:02:57;;;;;;;6.88;2.88;;;11.50;99.90;;;;;;4941923;28;20057;-33
2023/06/06 02:05:22;;;;;;;6.10;3.08;;;11.50;99.90;;;;;;4937876;28;20078;-33
2023/06/06 02:07:49;;;;;;;7.82;3.58;;;11.40;99.90;;;;;;4941972;28;20051;-33
2023/06/06 02:10:15;;;;;;;6.97;2.92;;;11.40;99.90;;;;;;4917217;29;20394;-33
2023/06/06 02:12:41;;;;;;;6.43;2.90;;;11.30;99.90;;;;;;4941045;28;20090;-33
2023/06/06 02:15:09;;;;;;;9.88;3.47;;;11.30;99.90;;;;;;4936834;28;20054;-33
2023/06/06 02:17:35;;;;;;;6.97;2.83;;;11.30;99.90;;;;;;4938833;28;20549;-33
2023/06/06 02:20:01;;;;;;;7.40;2.85;;;11.20;99.90;;;;;;4939051;28;20493;-33
2023/06/06 02:22:27;;;;;;;7.60;3.50;;;11.20;99.90;;;;;;4923824;29;20635;-33
2023/06/06 02:24:52;;;;;;;7.68;3.00;;;11.20;99.90;;;;;;4935545;28;20047;-33
2023/06/06 02:27:19;;;;;;;5.57;2.90;;;11.10;99.90;;;;;;4934903;28;20094;-33
2023/06/06 02:29:45;;;;;;;11.52;3.53;;;11.10;99.90;;;;;;4936579;28;21045;-33
2023/06/06 02:32:11;;;;;;;8.75;3.83;;;11.10;99.90;;;;;;4938998;28;20047;-36
2023/06/06 02:34:37;;;;;;;7.78;3.33;;;11.00;99.90;;;;;;4939443;28;20047;-33
2023/06/06 02:37:06;;;;;;;8.88;3.55;;;11.00;99.90;;;;;;4941447;28;20139;-33
2023/06/06 02:39:35;;;;;;;9.07;3.90;;;10.90;99.90;;;;;;4940626;28;20490;-33
2023/06/06 02:42:05;;;;;;;8.95;3.67;;;10.90;99.90;;;;;;4940478;28;20058;-33
2023/06/06 02:44:31;;;;;;;8.30;3.45;;;10.90;99.90;;;;;;4937290;28;20051;-33
2023/06/06 02:46:57;;;;;;;11.13;4.72;;;10.90;99.90;;;;;;4938802;28;20074;-33
2023/06/06 02:49:23;;;;;;;7.53;3.03;;;10.90;99.90;;;;;;4938301;28;20177;-33
2023/06/06 02:51:49;;;;;;;12.05;3.33;;;11.00;99.90;;;;;;4940842;28;20577;-33
2023/06/06 02:54:14;;;;;;;11.63;4.25;;;11.00;99.90;;;;;;4938310;28;20142;-33
2023/06/06 02:56:40;;;;;;;6.22;3.30;;;10.90;99.90;;;;;;4935972;28;20074;-33
2023/06/06 02:59:07;;;;;;;9.02;3.13;;;10.90;99.90;;;;;;4934171;28;20062;-33
2023/06/06 03:01:36;;;;;;;9.60;3.75;;;10.90;99.90;;;;;;4942703;28;20055;-33
2023/06/06 03:04:03;;;;;;;8.73;3.40;;;10.90;99.90;;;;;;4951272;28;20055;-33
2023/06/06 03:06:36;;;;;;;9.05;3.58;;;10.90;99.90;;;;;;4958807;28;20047;-33
2023/06/06 03:09:03;;;;;;;8.20;3.65;;;11.00;99.90;;;;;;4937188;28;20086;-33
2023/06/06 03:11:30;;;;;;;9.32;3.78;;;10.90;99.90;;;;;;4951274;28;20058;-33
2023/06/06 03:13:56;;;;;;;9.55;3.97;;;11.00;99.90;;;;;;4958212;28;20058;-33
2023/06/06 03:16:26;;;;;;;13.85;4.53;;;10.90;99.90;;;;;;4958509;28;20090;-35
2023/06/06 03:18:54;;;;;;;10.48;4.40;;;10.90;99.90;;;;;;4966399;28;20055;-33
2023/06/06 03:21:20;;;;;;;11.80;4.70;;;10.90;99.90;;;;;;4963924;28;20061;-33
2023/06/06 03:23:46;;;;;;;11.40;4.53;;;10.90;99.90;;;;;;4959058;28;20130;-33
2023/06/06 03:26:12;;;;;;;13.52;4.72;;;10.90;99.90;;;;;;4956767;28;20077;-33
2023/06/06 03:28:37;;;;;;;8.32;3.80;;;10.90;99.90;;;;;;4954022;28;20137;-33
2023/06/06 03:31:07;;;;;;;11.30;4.05;;;10.90;99.90;;;;;;4956878;28;20137;-33
2023/06/06 03:33:35;;;;;;;9.70;4.13;;;10.90;99.90;;;;;;4957418;28;20051;-34
2023/06/06 03:36:01;;;;;;;8.02;3.50;;;10.90;99.90;;;;;;4963327;28;20078;-33
2023/06/06 03:38:27;;;;;;;10.57;4.13;;;10.90;99.90;;;;;;4961536;28;20046;-33
2023/06/06 03:40:53;;;;;;;8.63;3.88;;;10.90;99.90;;;;;;4946367;28;20043;-33
2023/06/06 03:43:19;;;;;;;8.73;3.45;;;10.90;99.90;;;;;;4955981;28;20051;-33
2023/06/06 03:45:44;;;;;;;8.95;3.75;;;10.90;99.90;;;;;;4961021;28;20078;-33
2023/06/06 03:48:10;;;;;;;8.00;3.72;;;10.90;99.90;;;;;;4958804;28;20390;-33
2023/06/06 03:50:36;;;;;;;10.18;3.70;;;10.90;99.90;;;;;;4958755;28;20073;-33
2023/06/06 03:53:02;;;;;;;8.23;3.10;;;10.90;99.90;;;;;;4952930;28;20512;-33
2023/06/06 03:55:28;;;;;;;9.02;3.13;;;10.90;99.90;;;;;;4960335;28;20042;-33
2023/06/06 03:57:54;;;;;;;12.85;3.45;;;10.90;99.90;;;;;;4959101;28;20094;-33
2023/06/06 04:00:20;;;;;;;10.05;3.47;;;11.00;99.90;;;;;;4960756;28;20059;-34
2023/06/06 04:02:49;;;;;;;7.88;4.07;;;10.90;99.90;;;;;;4932686;28;1081990;-35
2023/06/06 04:05:16;;;;;;;7.82;3.60;;;11.00;99.90;;;;;;4939397;28;20138;-33
2023/06/06 04:07:42;;;;;;;10.07;3.70;;;11.00;99.90;;;;;;4943260;28;20051;-33
2023/06/06 04:10:08;;;;;;;12.27;4.60;;;11.00;99.90;;;;;;4946263;28;20482;-35
2023/06/06 04:12:34;;;;;;;9.73;3.45;;;11.10;99.90;;;;;;4963517;28;20138;-33
2023/06/06 04:15:00;;;;;;;9.50;4.05;;;11.10;99.90;;;;;;4957332;28;20560;-33
2023/06/06 04:17:26;;;;;;;15.35;4.00;;;11.10;99.90;;;;;;4960189;28;20081;-34
2023/06/06 04:19:52;;;;;;;8.57;3.50;;;11.10;99.90;;;;;;4955759;28;20047;-33
2023/06/06 04:22:19;;;;;;;9.23;3.47;;;11.20;99.90;;;;;;4956498;28;20726;-33
2023/06/06 04:24:46;;;;;;;11.20;4.15;;;11.20;99.90;;;;;;4956382;28;20054;-33
2023/06/06 04:27:12;;;;;;;8.48;3.90;;;11.20;99.90;;;;;;4956198;28;20061;-35
2023/06/06 04:29:41;;;;;;;10.55;4.18;;;11.20;99.90;;;;;;4959385;28;20074;-33
2023/06/06 04:32:10;;;;;;;10.35;3.17;;;11.20;99.90;;;;;;4964564;28;20056;-33
2023/06/06 04:34:40;;;;;;;12.75;3.88;;;11.30;99.90;;;;;;4963296;28;20496;-33
2023/06/06 04:37:07;;;;;;;7.47;3.35;;;11.30;99.90;;;;;;4952833;28;20129;-33
2023/06/06 04:39:36;;;;;;;7.88;3.45;;;11.30;99.90;;;;;;4954320;28;20094;-33
2023/06/06 04:42:04;;;;;;;8.32;4.00;;;11.40;99.90;;;;;;4958117;28;20051;-33
2023/06/06 04:44:31;;;;;;;8.93;3.33;;;11.40;99.90;;;;;;4961131;28;20055;-33
2023/06/06 04:47:00;;;;;;;6.72;3.33;;;11.40;99.90;;;;;;4957355;28;20047;-34
2023/06/06 04:49:26;;;;;;;9.95;3.40;;;11.50;99.90;;;;;;4957038;28;20501;-39
2023/06/06 04:51:53;;;;;;;9.15;3.28;;;11.50;99.90;;;;;;4955560;28;20061;-34
2023/06/06 04:54:19;;;;;;;9.25;3.42;;;11.60;99.90;;;;;;4946361;28;20082;-34
2023/06/06 04:56:46;;;;;;;9.77;2.75;;;11.60;99.90;;;;;;4961691;28;20432;-34
2023/06/06 04:59:12;;;;;;;10.35;2.95;;;11.60;99.90;;;;;;4960086;28;20050;-34
2023/06/06 05:01:41;;;;;;;9.50;3.85;;;11.70;99.90;;;;;;4955684;28;20180;-34
2023/06/06 05:04:07;;;;;;;8.05;3.28;;;11.80;99.90;;;;;;4962047;28;20066;-35
2023/06/06 05:06:34;;;;;;;6.72;2.90;;;11.90;99.90;;;;;;4961816;28;20055;-34
2023/06/06 05:09:03;;;;;;;8.88;3.03;;;11.90;99.90;;;;;;4959747;28;20094;-34
2023/06/06 05:11:30;;;;;;;12.45;4.20;;;12.00;99.90;;;;;;4942982;28;20057;-34
2023/06/06 05:13:56;;;;;;;8.45;3.55;;;12.10;99.90;;;;;;4959288;28;20055;-35
2023/06/06 05:16:22;;;;;;;10.48;3.67;;;12.20;99.90;;;;;;4955633;28;20579;-34
2023/06/06 05:18:47;;;;;;;6.10;2.90;;;12.20;99.90;;;;;;4957153;28;20043;-34
2023/06/06 05:21:14;;;;;;;5.85;2.65;;;12.30;99.90;;;;;;4951699;28;20059;-34
2023/06/06 05:23:40;;;;;;;6.20;2.67;;;12.30;99.90;;;;;;4953707;28;20477;-34
2023/06/06 05:26:06;;;;;;;9.20;2.78;;;12.40;99.90;;;;;;4954663;28;20089;-34
2023/06/06 05:28:32;;;;;;;8.90;2.90;;;12.40;99.90;;;;;;4957104;28;20074;-34
2023/06/06 05:30:57;;;;;;;5.82;2.40;;;12.50;99.90;;;;;;4953718;28;20055;-34
2023/06/06 05:33:27;;;;;;;7.65;2.92;;;12.60;99.90;;;;;;4956153;28;20058;-35
2023/06/06 05:35:55;;;;;;;6.20;2.95;;;12.60;99.90;;;;;;4957929;28;20073;-34
2023/06/06 05:38:21;;;;;;;7.70;2.58;;;12.70;99.90;;;;;;4951850;28;20054;-34
2023/06/06 05:40:47;;;;;;;10.40;3.35;;;12.70;99.90;;;;;;4960661;28;20049;-34
2023/06/06 05:43:14;;;;;;;7.55;2.65;;;12.80;99.90;;;;;;4949956;28;20055;-34
2023/06/06 05:45:40;;;;;;;6.70;2.50;;;12.90;99.90;;;;;;4951163;28;20508;-34
2023/06/06 05:48:06;;;;;;;8.38;2.20;;;12.90;99.90;;;;;;4952482;28;20098;-34
2023/06/06 05:50:32;;;;;;;6.75;2.30;;;12.90;99.90;;;;;;4950776;28;20067;-34
2023/06/06 05:52:58;;;;;;;5.95;2.70;;;13.00;99.90;;;;;;4948916;28;20073;-34
2023/06/06 05:55:31;;;;;;;7.85;2.30;;;13.00;99.90;;;;;;4950092;28;20519;-34
2023/06/06 05:57:57;;;;;;;6.25;2.53;;;13.10;99.90;;;;;;4947567;28;20058;-34
2023/06/06 06:00:24;;;;;;;9.80;2.42;;;13.10;99.90;;;;;;4951945;28;20055;-34
2023/06/06 06:02:55;;;;;;;5.80;2.10;;;13.20;99.90;;;;;;4962706;28;20159;-35
2023/06/06 06:05:22;;;;;;;4.18;2.00;;;13.30;99.90;;;;;;4959391;28;20580;-34
2023/06/06 06:07:49;;;;;;;8.35;1.95;;;13.40;99.90;;;;;;4952076;28;20527;-34
2023/06/06 06:10:15;;;;;;;8.60;2.42;;;13.40;99.90;;;;;;4957369;28;20051;-35
2023/06/06 06:12:44;;;;;;;6.70;2.45;;;13.50;99.90;;;;;;4943637;28;20059;-34
2023/06/06 06:15:10;;;;;;;8.90;2.88;;;13.60;99.90;;;;;;4954207;28;20065;-34
2023/06/06 06:17:36;;;;;;;8.27;2.15;;;13.70;99.90;;;;;;4951929;28;20050;-34
2023/06/06 06:20:08;;;;;;;4.68;2.00;;;13.80;99.90;;;;;;4951088;28;20059;-34
2023/06/06 06:22:37;;;;;;;7.97;2.03;;;13.80;99.90;;;;;;4956643;28;20514;-34
2023/06/06 06:25:08;;;;;;;6.35;2.33;;;13.90;99.90;;;;;;4966277;28;20608;-34
2023/06/06 06:27:35;;;;;;;5.38;1.88;;;14.00;99.90;;;;;;4954854;28;20059;-34
2023/06/06 06:30:04;;;;;;;4.95;1.73;;;14.00;99.90;;;;;;4964935;28;20560;-34
2023/06/06 06:32:33;;;;;;;5.45;2.00;;;14.20;99.90;;;;;;4959672;28;20055;-34
2023/06/06 06:35:01;;;;;;;8.23;2.30;;;14.30;99.90;;;;;;4957179;28;20089;-34
2023/06/06 06:37:29;;;;;;;10.18;2.35;;;14.40;99.90;;;;;;4938294;28;20137;-34
2023/06/06 06:39:56;;;;;;;11.60;2.30;;;14.50;99.90;;;;;;4952810;28;20051;-34
2023/06/06 06:42:21;;;;;;;6.68;1.95;;;14.60;99.90;;;;;;4957626;28;20051;-34
2023/06/06 06:44:47;;;;;;;6.15;2.38;;;14.70;99.90;;;;;;4954751;28;20497;-34
2023/06/06 06:47:13;;;;;;;6.97;2.15;;;14.80;99.90;;;;;;4964327;28;20448;-34
2023/06/06 06:49:40;;;;;;;6.65;2.08;;;14.80;99.90;;;;;;4958214;28;20053;-34
2023/06/06 06:52:07;;;;;;;6.53;3.40;;;14.90;99.90;;;;;;4965998;28;20272;-34
2023/06/06 06:54:35;;;;;;;5.18;1.92;;;15.00;99.90;;;;;;4945973;28;20069;-34
2023/06/06 06:57:02;;;;;;;7.28;2.10;;;15.10;99.90;;;;;;4961841;28;20047;-35
2023/06/06 06:59:28;;;;;;;5.18;1.60;;;15.10;99.90;;;;;;4963669;28;20472;-35
2023/06/06 07:01:54;;;;;;;8.48;2.10;;;15.20;99.90;;;;;;4952921;28;20121;-34
2023/06/06 07:04:21;;;;;;;5.40;2.15;;;15.40;99.90;;;;;;4956085;28;20101;-36
2023/06/06 07:06:47;;;;;;;9.13;2.47;;;15.50;99.90;;;;;;4937348;28;20059;-35
2023/06/06 07:09:13;;;;;;;11.45;2.28;;;15.60;99.90;;;;;;4959333;28;21345;-35
2023/06/06 07:11:39;;;;;;;9.18;2.10;;;15.70;99.90;;;;;;4959916;28;20058;-35
2023/06/06 07:14:05;;;;;;;7.18;2.35;;;15.70;99.90;;;;;;4961470;28;20039;-35
2023/06/06 07:16:31;;;;;;;5.15;2.35;;;15.80;99.90;;;;;;4952974;28;20390;-35
2023/06/06 07:18:57;;;;;;;5.78;1.67;;;15.90;99.90;;;;;;4953772;28;20054;-35
2023/06/06 07:21:25;;;;;;;7.05;2.22;;;15.90;99.90;;;;;;4953825;28;20066;-35
2023/06/06 07:23:51;;;;;;;9.55;2.22;;;16.00;99.90;;;;;;4958599;28;20044;-36
2023/06/06 07:26:18;;;;;;;8.80;2.15;;;16.20;99.90;;;;;;4961586;28;20114;-35
2023/06/06 07:28:45;;;;;;;7.88;1.88;;;16.20;99.90;;;;;;4962219;28;20059;-35
2023/06/06 07:31:11;;;;;;;6.13;1.90;;;16.30;99.90;;;;;;4961394;28;20394;-36
2023/06/06 07:33:37;;;;;;;7.68;1.98;;;16.30;99.90;;;;;;4957310;28;20489;-36
2023/06/06 07:36:03;;;;;;;6.18;1.65;;;16.40;99.90;;;;;;4961010;28;20058;-36
2023/06/06 07:38:29;;;;;;;5.25;2.10;;;16.50;99.90;;;;;;4974128;28;20046;-36
2023/06/06 07:40:56;;;;;;;5.63;2.17;;;16.50;99.90;;;;;;4959234;28;20106;-35
2023/06/06 07:43:21;;;;;;;5.60;2.13;;;16.60;99.90;;;;;;4965139;28;20157;-35
2023/06/06 07:45:47;;;;;;;5.20;2.45;;;16.60;99.90;;;;;;4956934;28;20572;-35
2023/06/06 07:48:13;;;;;;;4.70;2.35;;;16.70;99.90;;;;;;4963086;28;20047;-35
2023/06/06 07:50:38;;;;;;;6.43;2.40;;;16.70;99.90;;;;;;4965050;28;20054;-35
2023/06/06 07:53:05;;;;;;;7.13;2.42;;;16.70;99.90;;;;;;4961285;28;20385;-35
2023/06/06 07:55:30;;;;;;;6.88;2.38;;;16.80;99.90;;;;;;4960251;28;20078;-35
2023/06/06 07:57:57;;;;;;;8.20;2.00;;;16.90;99.90;;;;;;4962909;28;20105;-35
2023/06/06 08:00:23;;;;;;;5.13;2.15;;;17.00;99.90;;;;;;4961828;28;20066;-34
2023/06/06 08:02:49;;;;;;;5.53;2.10;;;17.10;99.90;;;;;;4962172;28;20601;-35
2023/06/06 08:05:16;;;;;;;4.43;2.30;;;17.20;99.90;;;;;;4961585;28;20047;-35
2023/06/06 08:07:42;;;;;;;5.47;2.00;;;17.30;99.90;;;;;;4961289;28;20078;-35
2023/06/06 08:10:08;;;;;;;7.00;2.45;;;17.40;99.90;;;;;;4965626;28;20051;-35
2023/06/06 08:12:35;;;;;;;7.47;2.15;;;17.50;99.90;;;;;;4964585;28;20047;-35
2023/06/06 08:15:01;;;;;;;7.53;2.00;;;17.50;99.90;;;;;;4967475;28;20051;-35
2023/06/06 08:17:27;;;;;;;7.20;2.38;;;17.50;99.90;;;;;;4960994;28;20059;-35
2023/06/06 08:19:52;;;;;;;5.72;1.98;;;17.60;99.90;;;;;;4959719;28;20062;-35
2023/06/06 08:22:18;;;;;;;6.40;2.72;;;17.70;99.90;;;;;;4959679;28;20058;-35
2023/06/06 08:24:44;;;;;;;6.65;2.08;;;17.80;99.90;;;;;;4945266;28;20055;-35
2023/06/06 08:27:10;;;;;;;5.53;2.35;;;17.90;99.90;;;;;;4960259;28;20038;-35
2023/06/06 08:29:36;;;;;;;8.50;2.75;;;18.10;99.90;;;;;;4964571;28;20039;-35
2023/06/06 08:32:03;;;;;;;4.25;2.00;;;18.20;99.90;;;;;;4960572;28;20053;-35
2023/06/06 08:34:28;;;;;;;5.15;2.35;;;18.30;99.90;;;;;;4958520;28;20071;-35
2023/06/06 08:36:54;;;;;;;5.78;1.77;;;18.30;99.90;;;;;;4959643;28;20098;-35
2023/06/06 08:39:23;;;;;;;4.35;1.98;;;18.40;99.90;;;;;;4965136;28;20114;-35
2023/06/06 08:41:50;;;;;;;7.38;2.40;;;18.40;99.90;;;;;;4960787;28;20061;-35
2023/06/06 08:44:21;;;;;;;4.82;2.22;;;18.40;99.90;;;;;;4965781;28;20055;-36
2023/06/06 08:46:49;;;;;;;5.68;2.20;;;18.40;99.90;;;;;;4963805;28;20047;-35
2023/06/06 08:49:18;;;;;;;6.60;2.30;;;18.40;99.90;;;;;;4961333;28;20420;-35
2023/06/06 08:51:45;;;;;;;6.97;2.28;;;18.50;99.90;;;;;;4970912;28;20137;-35
2023/06/06 08:54:11;;;;;;;6.07;2.38;;;18.60;99.90;;;;;;4958029;28;20058;-35
2023/06/06 08:56:41;;;;;;;6.60;3.05;;;18.70;99.90;;;;;;4958499;28;20129;-35
2023/06/06 08:59:08;;;;;;;5.55;1.98;;;18.80;99.90;;;;;;4964763;28;20050;-35
2023/06/06 09:01:36;;;;;;;5.68;2.38;;;18.90;99.90;;;;;;4961056;28;20488;-35
2023/06/06 09:04:04;;;;;;;6.20;2.60;;;19.00;99.90;;;;;;4960534;28;20254;-35
2023/06/06 09:06:32;;;;;;;5.90;2.70;;;19.10;99.90;;;;;;4957427;28;20051;-35
2023/06/06 09:08:58;;;;;;;6.22;2.50;;;19.20;99.90;;;;;;4964213;28;20054;-35
2023/06/06 09:11:24;;;;;;;5.03;2.28;;;19.30;99.90;;;;;;4961055;28;20050;-35
2023/06/06 09:13:50;;;;;;;6.00;2.40;;;19.30;99.90;;;;;;4969649;28;20051;-35
2023/06/06 09:16:17;;;;;;;8.43;2.25;;;19.40;99.90;;;;;;4966227;28;20527;-35
2023/06/06 09:18:43;;;;;;;4.18;2.10;;;19.60;99.90;;;;;;4958921;28;20078;-35
2023/06/06 09:21:09;;;;;;;4.28;2.22;;;19.70;99.90;;;;;;4958421;28;20055;-36
2023/06/06 09:23:35;;;;;;;6.28;2.60;;;19.80;99.90;;;;;;4965168;28;20054;-36
2023/06/06 09:26:01;;;;;;;6.93;1.95;;;19.80;99.90;;;;;;4962379;28;20051;-35
2023/06/06 09:28:37;;;;;;;5.38;1.90;;;20.00;99.90;;;;;;4963457;28;20062;-35
2023/06/06 09:31:23;;;;;;;5.50;2.50;;;20.10;99.90;;;;;;4959322;28;20055;-35
2023/06/06 09:33:57;;;;;;;5.30;2.30;;;20.30;99.90;;;;;;4959310;28;20135;-36
2023/06/06 09:36:29;;;;;;;6.68;2.28;;;20.40;99.90;;;;;;4970287;28;20055;-35
2023/06/06 09:39:06;;;;;;;9.82;2.33;;;20.50;99.90;;;;;;4953863;28;20062;-35
2023/06/06 09:41:39;;;;;;;9.70;2.20;;;20.60;99.90;;;;;;4945138;28;20619;-35
2023/06/06 09:44:05;;;;;;;8.27;2.60;;;20.60;99.90;;;;;;4956484;28;20481;-35
2023/06/06 09:46:36;;;;;;;6.30;2.20;;;20.60;99.90;;;;;;4965268;28;20058;-35
2023/06/06 09:49:03;;;;;;;10.98;2.75;;;20.70;99.90;;;;;;4962422;28;20090;-35
2023/06/06 09:51:30;;;;;;;8.30;2.45;;;20.80;99.90;;;;;;4961874;28;20113;-35
2023/06/06 09:53:56;;;;;;;5.05;1.80;;;20.80;99.90;;;;;;4960145;28;20078;-35
2023/06/06 09:56:25;;;;;;;4.25;2.00;;;20.90;99.90;;;;;;4926269;28;20056;-35
2023/06/06 09:58:55;;;;;;;4.40;2.00;;;20.90;99.90;;;;;;4956295;28;20067;-35
2023/06/06 10:01:32;;;;;;;5.93;2.20;;;21.10;99.90;;;;;;4957748;28;20062;-36
2023/06/06 10:03:59;;;;;;;5.93;2.95;;;21.20;99.90;;;;;;4966617;28;20499;-35
2023/06/06 10:06:33;;;;;;;10.60;2.47;;;21.20;99.90;;;;;;4958691;28;20054;-36
2023/06/06 10:09:02;;;;;;;5.68;2.22;;;21.30;99.90;;;;;;4960896;28;20125;-35
2023/06/06 10:11:28;;;;;;;5.07;2.03;;;21.40;99.90;;;;;;4966517;28;20046;-35
2023/06/06 10:13:56;;;;;;;4.72;2.03;;;21.50;99.90;;;;;;4952332;28;20117;-35
2023/06/06 10:16:22;;;;;;;4.28;1.90;;;21.70;99.90;;;;;;4944644;28;20050;-36
2023/06/06 10:18:49;;;;;;;6.28;1.98;;;21.80;99.90;;;;;;4959647;28;20050;-36
2023/06/06 10:21:18;;;;;;;6.20;2.40;;;21.80;99.90;;;;;;4953446;28;20055;-36
2023/06/06 10:23:45;;;;;;;5.22;1.77;;;21.80;99.90;;;;;;4953943;28;20074;-36
2023/06/06 10:26:37;;;;;;;5.47;1.90;;;21.90;99.90;;;;;;4955949;28;20105;-36
2023/06/06 10:29:05;;;;;;;;;;;22.00;99.90;;;;;;4951619;28;20058;-36
2023/06/06 10:31:47;;;;;;;6.70;2.42;;;22.10;99.90;;;;;;4956879;28;19925;-36
2023/06/06 10:34:18;;;;;;;3.70;1.73;;;22.20;99.90;;;;;;4954226;28;20071;-36
2023/06/06 10:36:44;;;;;;;7.38;2.85;;;22.30;99.90;;;;;;4960045;28;20571;-36
2023/06/06 10:39:21;;;;;;;7.60;2.58;;;22.40;99.90;;;;;;4959126;28;20058;-36
2023/06/06 10:41:52;;;;;;;5.63;2.50;;;22.60;99.90;;;;;;4958482;28;20050;-36
2023/06/06 10:44:24;;;;;;;8.55;2.70;;;22.60;99.90;;;;;;4957874;28;20054;-36
2023/06/06 10:46:50;;;;;;;5.28;2.10;;;22.70;99.90;;;;;;4960636;28;20054;-36
2023/06/06 10:49:16;;;;;;;4.70;1.88;;;22.70;99.90;;;;;;4920203;28;20070;-36
2023/06/06 10:51:42;;;;;;;6.07;2.10;;;22.70;99.90;;;;;;4963058;28;20051;-36
2023/06/06 10:54:21;;;;;;;6.10;2.38;;;22.80;99.90;;;;;;4959967;28;20477;-36
2023/06/06 10:56:56;;;;;;;4.00;1.63;;;23.00;99.90;;;;;;4939014;28;20054;-36
2023/06/06 10:59:31;;;;;;;8.23;2.50;;;23.20;99.90;;;;;;4961584;28;20054;-36
2023/06/06 11:01:58;;;;;;;5.00;1.98;;;23.30;99.90;;;;;;4963917;28;20403;-35
2023/06/06 11:04:26;;;;;;;5.47;2.40;;;23.30;99.90;;;;;;4961326;28;20416;-36
2023/06/06 11:07:00;;;;;;;5.53;2.50;;;23.40;99.90;;;;;;4962334;28;20406;-36
2023/06/06 11:09:29;;;;;;;5.97;2.33;;;23.50;99.90;;;;;;4961535;28;20094;-36
2023/06/06 11:12:13;;;;;;;4.88;2.10;;;23.50;99.90;;;;;;4956644;28;20493;-36
2023/06/06 11:14:57;;;;;;;6.75;2.70;;;23.60;99.90;;;;;;4958940;28;20443;-36
2023/06/06 11:17:29;;;;;;;5.10;2.35;;;23.60;99.90;;;;;;4963394;28;20205;-36
2023/06/06 11:19:55;;;;;;;3.60;2.25;;;23.60;99.90;;;;;;4958964;28;20145;-36
2023/06/06 11:22:25;;;;;;;7.25;2.17;;;23.60;99.90;;;;;;4957241;28;20050;-36
2023/06/06 11:24:51;;;;;;;4.75;2.35;;;23.60;99.90;;;;;;4952717;28;20047;-36
2023/06/06 11:27:17;;;;;;;6.38;2.17;;;23.70;99.90;;;;;;4956060;28;20412;-35
2023/06/06 11:29:45;;;;;;;5.32;2.22;;;23.80;99.90;;;;;;4960686;28;20051;-35
2023/06/06 11:32:12;;;;;;;6.13;1.85;;;23.90;99.90;;;;;;4959843;28;20046;-36
2023/06/06 11:34:38;;;;;;;4.82;2.20;;;24.00;99.90;;;;;;4958271;28;20066;-35
2023/06/06 11:37:05;;;;;;;5.43;2.33;;;24.00;99.90;;;;;;4964379;28;20724;-35
2023/06/06 11:39:31;;;;;;;4.65;2.10;;;24.00;99.90;;;;;;4961984;28;20114;-35
2023/06/06 11:41:57;;;;;;;6.07;2.28;;;24.10;99.90;;;;;;4957801;28;20051;-35
2023/06/06 11:44:39;;;;;;;10.90;2.45;;;24.10;99.90;;;;;;4960140;28;20145;-35
2023/06/06 11:47:08;;;;;;;4.90;1.90;;;24.10;99.90;;;;;;4967408;28;20047;-35
2023/06/06 11:49:47;;;;;;;4.63;2.20;;;24.10;99.90;;;;;;4969056;28;20046;-35
2023/06/06 11:52:13;;;;;;;6.10;2.08;;;24.20;99.90;;;;;;4964956;28;20580;-35
2023/06/06 11:54:49;;;;;;;5.53;2.22;;;24.20;99.90;;;;;;4962773;28;20065;-35
2023/06/06 11:57:17;;;;;;;5.18;2.28;;;24.30;99.90;;;;;;4969903;28;20143;-35
2023/06/06 11:59:44;;;;;;;6.10;1.98;;;24.40;99.90;;;;;;4969974;28;20058;-35
2023/06/06 12:02:13;;;;;;;5.25;2.30;;;24.60;99.90;;;;;;4960740;28;20071;-35
2023/06/06 12:04:46;;;;;;;5.82;2.10;;;24.60;99.90;;;;;;4970226;28;20055;-35
2023/06/06 12:07:12;;;;;;;7.72;2.28;;;24.60;99.90;;;;;;4962144;28;20504;-36
2023/06/06 12:09:38;;;;;;;5.20;2.50;;;24.70;99.90;;;;;;4972352;28;20086;-36
2023/06/06 12:12:04;;;;;;;6.78;2.90;;;24.60;99.90;;;;;;4965379;28;20130;-35
2023/06/06 12:14:32;;;;;;;8.02;2.60;;;24.60;99.90;;;;;;4957211;28;20055;-35
2023/06/06 12:17:08;;;;;;;6.25;2.55;;;24.60;99.90;;;;;;4959408;28;20090;-35
2023/06/06 12:19:36;;;;;;;5.95;2.40;;;24.50;99.90;;;;;;4955696;28;20047;-35
2023/06/06 12:22:02;;;;;;;4.95;2.60;;;24.60;99.90;;;;;;4963327;28;20122;-35
2023/06/06 12:24:32;;;;;;;6.90;2.30;;;24.60;99.90;;;;;;4958871;28;20223;-35
2023/06/06 12:27:05;;;;;;;7.53;2.50;;;24.60;99.90;;;;;;4965172;28;20047;-35
2023/06/06 12:29:35;;;;;;;4.50;2.13;;;24.60;99.90;;;;;;4968348;28;20046;-36
2023/06/06 12:32:22;;;;;;;4.32;2.20;;;24.70;99.90;;;;;;4961093;28;20051;-35
2023/06/06 12:34:50;;;;;;;6.43;2.55;;;24.80;99.90;;;;;;4960504;28;20055;-35
2023/06/06 12:37:18;;;;;;;7.18;2.42;;;25.00;99.90;;;;;;4947798;28;20051;-35
2023/06/06 12:39:45;;;;;;;5.30;2.25;;;25.10;99.90;;;;;;4960080;28;20085;-35
2023/06/06 12:42:19;;;;;;;6.40;2.80;;;25.20;99.90;;;;;;4955903;28;20070;-35
2023/06/06 12:44:46;;;;;;;8.50;2.67;;;25.40;99.90;;;;;;4953640;28;20176;-35
2023/06/06 12:47:17;;;;;;;4.85;2.65;;;25.50;99.90;;;;;;4961078;28;20046;-35
2023/06/06 12:49:44;;;;;;;10.70;2.90;;;25.60;99.90;;;;;;4938530;28;20505;-35